Time;durP1;ratioP1;P1;durP2;ratioP2;P2;SDS_P1;SDS_P2;PMS_P1;PMS_P2;Temp;Humidity;BMP_temperature;BMP_pressure;BME280_temperature;BME280_humidity;BME280_pressure;Samples;Min_cycle;Max_cycle;Signal;HPM_P1;HPM_P2
2022/07/08 00:01:22;;;;;;;0.00;0.00;;;;;;;21.20;52.92;102885.03;7346699;19;20021;-63
2022/07/08 00:03:48;;;;;;;0.00;0.00;;;;;;;21.16;53.24;102887.84;7358837;19;20010;-63
2022/07/08 00:06:13;;;;;;;0.00;0.00;;;;;;;21.04;53.11;102873.19;7359607;19;20018;-63
2022/07/08 00:08:39;;;;;;;0.00;0.00;;;;;;;21.03;53.47;102873.22;7359646;19;20739;-63
2022/07/08 00:11:04;;;;;;;0.10;0.10;;;;;;;21.03;53.50;102881.19;7360408;19;21102;-63
2022/07/08 00:13:30;;;;;;;0.00;0.00;;;;;;;20.97;53.55;102877.81;7360773;19;20025;-63
2022/07/08 00:15:55;;;;;;;0.00;0.00;;;;;;;20.92;53.15;102879.72;7360317;19;20025;-63
2022/07/08 00:18:20;;;;;;;0.00;0.00;;;;;;;20.88;53.22;102878.13;7360227;19;20011;-63
2022/07/08 00:20:46;;;;;;;0.00;0.00;;;;;;;20.74;53.60;102864.41;7360485;19;20023;-63
2022/07/08 00:23:13;;;;;;;0.00;0.00;;;;;;;20.76;53.14;102867.00;7314969;19;20022;-63
2022/07/08 00:25:38;;;;;;;0.00;0.00;;;;;;;20.70;53.63;102871.56;7357226;19;20011;-63
2022/07/08 00:28:04;;;;;;;0.00;0.00;;;;;;;20.66;53.13;102877.03;7358016;19;20038;-63
2022/07/08 00:30:29;;;;;;;0.00;0.00;;;;;;;20.61;53.42;102873.63;7354121;19;20140;-63
2022/07/08 00:32:54;;;;;;;0.00;0.00;;;;;;;20.55;53.71;102868.53;7353876;19;20017;-62
2022/07/08 00:35:20;;;;;;;0.00;0.00;;;;;;;20.43;53.06;102859.13;7356796;19;20040;-63
2022/07/08 00:37:45;;;;;;;0.00;0.00;;;;;;;20.43;53.34;102872.38;7363286;19;20122;-63
2022/07/08 00:40:11;;;;;;;0.05;0.05;;;;;;;20.39;53.29;102873.38;7361685;19;20070;-63
2022/07/08 00:42:37;;;;;;;0.00;0.00;;;;;;;20.31;53.39;102868.28;7362161;19;20521;-63
2022/07/08 00:45:03;;;;;;;0.00;0.00;;;;;;;20.26;54.22;102862.25;7365249;19;20021;-63
2022/07/08 00:47:28;;;;;;;0.00;0.00;;;;;;;20.19;54.37;102864.22;7364908;19;20094;-63
2022/07/08 00:49:54;;;;;;;0.10;0.10;;;;;;;20.06;54.47;102849.53;7364567;19;20556;-63
2022/07/08 00:52:20;;;;;;;0.00;0.00;;;;;;;20.06;54.24;102865.44;7365444;19;20010;-63
2022/07/08 00:54:45;;;;;;;0.00;0.00;;;;;;;19.92;54.51;102857.91;7365317;19;20014;-63
2022/07/08 00:57:12;;;;;;;0.00;0.00;;;;;;;19.91;54.41;102861.44;7353662;19;20011;-63
2022/07/08 00:59:38;;;;;;;0.10;0.10;;;;;;;19.86;54.62;102870.44;7361013;19;20829;-63
2022/07/08 01:02:03;;;;;;;0.00;0.00;;;;;;;19.79;55.56;102872.41;7362963;19;20010;-63
2022/07/08 01:04:30;;;;;;;0.00;0.00;;;;;;;19.72;55.59;102868.19;7357380;19;20009;-63
2022/07/08 01:06:56;;;;;;;0.10;0.10;;;;;;;19.67;55.20;102864.78;7360545;19;20014;-63
2022/07/08 01:09:22;;;;;;;0.00;0.00;;;;;;;19.63;55.54;102868.41;7367578;19;20029;-63
2022/07/08 01:11:47;;;;;;;0.00;0.00;;;;;;;19.58;55.64;102867.63;7364846;19;20085;-63
2022/07/08 01:14:16;;;;;;;0.00;0.00;;;;;;;19.44;55.68;102849.44;7363284;19;20081;-63
2022/07/08 01:16:42;;;;;;;0.00;0.00;;;;;;;19.47;56.47;102865.25;7365149;19;20014;-63
2022/07/08 01:19:07;;;;;;;0.00;0.00;;;;;;;19.40;56.00;102861.88;7361806;19;20010;-63
2022/07/08 01:21:32;;;;;;;0.00;0.00;;;;;;;19.35;56.10;102865.56;7364088;19;20017;-63
2022/07/08 01:23:58;;;;;;;0.00;0.00;;;;;;;19.28;56.30;102862.19;7362056;19;20010;-63
2022/07/08 01:26:24;;;;;;;0.00;0.00;;;;;;;19.22;55.92;102857.06;7362707;19;20031;-63
2022/07/08 01:28:50;;;;;;;0.00;0.00;;;;;;;19.18;56.71;102863.31;7364926;19;20034;-63
2022/07/08 01:31:15;;;;;;;0.08;0.08;;;;;;;19.14;56.33;102859.88;7363562;19;20007;-63
2022/07/08 01:33:40;;;;;;;0.00;0.00;;;;;;;19.10;56.47;102855.53;7366221;19;20037;-63
2022/07/08 01:36:07;;;;;;;0.00;0.00;;;;;;;18.98;56.32;102844.41;7364162;19;20026;-63
2022/07/08 01:38:32;;;;;;;0.00;0.00;;;;;;;19.03;56.66;102861.03;7365435;19;20458;-63
2022/07/08 01:40:58;;;;;;;0.00;0.00;;;;;;;19.00;57.11;102861.09;7361801;19;20015;-63
2022/07/08 01:43:23;;;;;;;0.00;0.00;;;;;;;18.92;56.86;102856.88;7362930;19;20019;-63
2022/07/08 01:45:49;;;;;;;0.00;0.00;;;;;;;18.84;57.26;102858.81;7364602;19;20042;-63
2022/07/08 01:48:14;;;;;;;0.00;0.00;;;;;;;18.76;57.40;102858.13;7361717;19;20538;-63
2022/07/08 01:50:40;;;;;;;0.00;0.00;;;;;;;18.68;57.76;102868.00;7362873;19;20029;-63
2022/07/08 01:53:05;;;;;;;0.00;0.00;;;;;;;18.59;57.74;102858.47;7365744;19;20470;-63
2022/07/08 01:55:31;;;;;;;0.00;0.00;;;;;;;18.50;57.38;102849.84;7364016;19;20006;-63
2022/07/08 01:57:56;;;;;;;0.00;0.00;;;;;;;18.37;58.18;102836.88;7353795;19;21715;-63
2022/07/08 02:00:21;;;;;;;0.00;0.00;;;;;;;18.36;57.89;102845.72;7365433;19;20009;-63
2022/07/08 02:02:47;;;;;;;0.00;0.00;;;;;;;18.41;58.42;102864.16;7362416;19;20018;-63
2022/07/08 02:05:14;;;;;;;0.00;0.00;;;;;;;18.37;58.52;102863.34;7364230;19;20554;-63
2022/07/08 02:07:40;;;;;;;0.00;0.00;;;;;;;18.31;58.21;102860.84;7365722;19;20014;-63
2022/07/08 02:10:07;;;;;;;0.08;0.08;;;;;;;18.27;59.06;102871.50;7366506;19;20014;-63
2022/07/08 02:12:33;;;;;;;0.00;0.00;;;;;;;18.19;58.78;102874.28;7365317;19;20014;-63
2022/07/08 02:15:02;;;;;;;0.00;0.00;;;;;;;18.15;58.99;102876.13;7362643;19;20009;-63
2022/07/08 02:17:30;;;;;;;0.00;0.00;;;;;;;18.09;58.94;102875.38;7366247;19;20013;-63
2022/07/08 02:19:55;;;;;;;0.05;0.05;;;;;;;18.04;59.34;102869.31;7363274;19;20046;-63
2022/07/08 02:22:22;;;;;;;0.00;0.00;;;;;;;17.98;59.26;102880.00;7365271;19;20014;-63
2022/07/08 02:24:48;;;;;;;0.00;0.00;;;;;;;17.92;59.37;102882.75;7364008;19;20024;-63
2022/07/08 02:27:13;;;;;;;0.00;0.00;;;;;;;17.88;59.88;102880.16;7365862;19;20078;-63
2022/07/08 02:29:39;;;;;;;0.03;0.03;;;;;;;17.85;60.07;102882.88;7363259;19;20018;-63
2022/07/08 02:32:05;;;;;;;0.08;0.08;;;;;;;17.82;60.43;102882.94;7363086;19;20007;-64
2022/07/08 02:34:31;;;;;;;0.00;0.00;;;;;;;17.77;60.56;102882.13;7363917;19;20042;-63
2022/07/08 02:36:56;;;;;;;0.00;0.00;;;;;;;17.75;60.75;102880.44;7362782;19;20489;-63
2022/07/08 02:39:21;;;;;;;0.00;0.00;;;;;;;17.72;61.07;102883.97;7364657;19;20082;-63
2022/07/08 02:41:47;;;;;;;0.00;0.00;;;;;;;17.63;61.14;102868.25;7362601;19;20006;-63
2022/07/08 02:44:13;;;;;;;0.00;0.00;;;;;;;17.71;61.26;102879.56;7363807;19;20049;-63
2022/07/08 02:46:38;;;;;;;0.00;0.00;;;;;;;17.72;61.39;102878.66;7363545;19;20013;-63
2022/07/08 02:49:04;;;;;;;0.00;0.00;;;;;;;17.75;61.34;102886.59;7364202;19;20022;-63
2022/07/08 02:51:30;;;;;;;0.00;0.00;;;;;;;17.77;61.25;102882.13;7360760;19;20002;-63
2022/07/08 02:53:55;;;;;;;0.10;0.10;;;;;;;17.80;61.59;102887.38;7364909;19;20019;-63
2022/07/08 02:56:21;;;;;;;0.00;0.00;;;;;;;17.82;61.56;102884.69;7351442;19;20014;-63
2022/07/08 02:58:46;;;;;;;0.00;0.00;;;;;;;17.84;61.51;102881.16;7333841;19;20022;-63
2022/07/08 03:01:12;;;;;;;0.00;0.00;;;;;;;17.82;61.27;102880.28;7340090;19;20105;-63
2022/07/08 03:03:38;;;;;;;0.00;0.00;;;;;;;17.85;61.84;102872.31;7333201;19;20029;-63
2022/07/08 03:06:03;;;;;;;0.00;0.00;;;;;;;17.86;61.66;102866.13;7340610;19;20766;-62
2022/07/08 03:08:29;;;;;;;0.00;0.00;;;;;;;17.88;61.95;102863.44;7350518;19;20015;-63
2022/07/08 03:10:54;;;;;;;0.00;0.00;;;;;;;17.77;61.56;102849.56;7350873;19;20045;-63
2022/07/08 03:13:20;;;;;;;0.10;0.10;;;;;;;17.82;61.96;102864.44;7347849;19;20884;-63
2022/07/08 03:15:45;;;;;;;0.05;0.05;;;;;;;17.78;62.07;102860.09;7351476;19;20033;-63
2022/07/08 03:18:11;;;;;;;0.08;0.08;;;;;;;17.82;62.07;102867.06;7355835;19;20011;-63
2022/07/08 03:20:36;;;;;;;0.00;0.00;;;;;;;17.86;62.25;102863.47;7263085;19;20751;-63
2022/07/08 03:23:02;;;;;;;0.00;0.00;;;;;;;17.90;62.16;102872.22;7356705;19;20018;-63
2022/07/08 03:25:29;;;;;;;0.10;0.10;;;;;;;17.92;62.22;102870.41;7360469;19;20011;-63
2022/07/08 03:27:55;;;;;;;0.07;0.07;;;;;;;17.89;61.83;102866.06;7359373;19;20021;-62
2022/07/08 03:30:20;;;;;;;0.00;0.00;;;;;;;17.94;61.50;102868.59;7361180;19;20006;-63
2022/07/08 03:32:45;;;;;;;0.05;0.05;;;;;;;17.93;62.13;102866.88;7356416;19;20575;-63
2022/07/08 03:35:11;;;;;;;0.00;0.00;;;;;;;17.93;62.23;102863.34;7362732;19;20006;-63
2022/07/08 03:37:42;;;;;;;0.00;0.00;;;;;;;17.95;62.03;102866.84;7356133;19;20033;-63
2022/07/08 03:42:53;;;;;;;0.00;0.00;;;;;;;17.92;62.83;102865.13;7359987;19;20029;-63
2022/07/08 03:45:18;;;;;;;0.00;0.00;;;;;;;17.92;62.69;102869.53;7363905;19;20569;-63
2022/07/08 03:47:44;;;;;;;0.00;0.00;;;;;;;17.90;62.77;102866.94;7359649;19;20010;-63
2022/07/08 03:50:09;;;;;;;0.10;0.10;;;;;;;17.93;62.72;102873.94;7362712;19;20026;-63
2022/07/08 03:52:34;;;;;;;0.00;0.00;;;;;;;17.95;62.81;102869.50;7358935;19;20477;-63
2022/07/08 03:55:00;;;;;;;0.00;0.00;;;;;;;17.94;62.56;102873.00;7360262;19;20018;-63
2022/07/08 03:57:25;;;;;;;0.00;0.00;;;;;;;17.93;62.53;102876.56;7362828;19;20014;-63
2022/07/08 03:59:51;;;;;;;0.00;0.00;;;;;;;17.92;62.58;102886.28;7361654;19;20318;-63
2022/07/08 04:02:16;;;;;;;0.00;0.00;;;;;;;17.82;63.03;102868.84;7361195;19;20014;-63
2022/07/08 04:04:42;;;;;;;0.00;0.00;;;;;;;17.91;62.69;102875.75;7363208;19;20429;-63
2022/07/08 04:07:07;;;;;;;0.00;0.00;;;;;;;17.91;62.75;102894.25;7363633;19;20022;-63
2022/07/08 04:09:33;;;;;;;0.00;0.00;;;;;;;17.87;63.00;102888.13;7361919;19;20890;-63
2022/07/08 04:11:58;;;;;;;0.10;0.10;;;;;;;17.86;63.22;102892.56;7376152;19;20014;-63
2022/07/08 04:14:24;;;;;;;0.00;0.00;;;;;;;17.85;63.13;102898.75;7377421;19;21103;-63
2022/07/08 04:16:49;;;;;;;0.00;0.00;;;;;;;17.83;63.15;102903.16;7375790;19;20009;-63
2022/07/08 04:19:15;;;;;;;0.00;0.00;;;;;;;17.81;63.28;102909.41;7377020;19;20014;-63
2022/07/08 04:22:00;;;;;;;0.00;0.00;;;;;;;17.79;63.74;102904.16;7339938;19;20037;-63
2022/07/08 04:24:26;;;;;;;0.05;0.05;;;;;;;17.81;63.79;102912.03;7378891;19;20106;-63
2022/07/08 04:26:51;;;;;;;0.00;0.00;;;;;;;17.80;63.58;102919.09;7376273;19;20041;-63
2022/07/08 04:29:17;;;;;;;0.00;0.00;;;;;;;17.80;63.99;102921.75;7377011;19;20030;-63
2022/07/08 04:31:42;;;;;;;0.03;0.03;;;;;;;17.81;63.61;102914.69;7375989;19;20042;-63
2022/07/08 04:34:07;;;;;;;0.00;0.00;;;;;;;17.80;64.16;102919.09;7376861;19;20022;-63
2022/07/08 04:36:33;;;;;;;0.00;0.00;;;;;;;17.82;63.58;102926.97;7374096;19;20011;-63
2022/07/08 04:38:58;;;;;;;0.00;0.00;;;;;;;17.80;63.92;102924.38;7368109;19;20037;-63
2022/07/08 04:41:24;;;;;;;0.00;0.00;;;;;;;17.79;64.16;102927.94;7368466;19;20023;-63
2022/07/08 04:43:49;;;;;;;0.10;0.10;;;;;;;17.76;64.18;102935.91;7373060;19;20030;-63
2022/07/08 04:46:14;;;;;;;0.00;0.00;;;;;;;17.74;63.84;102937.72;7373794;19;20098;-63
2022/07/08 04:48:40;;;;;;;0.00;0.00;;;;;;;17.70;63.88;102938.63;7375187;19;20018;-63
2022/07/08 04:51:06;;;;;;;0.00;0.00;;;;;;;17.66;63.82;102934.28;7376614;19;20014;-63
2022/07/08 04:53:31;;;;;;;0.00;0.00;;;;;;;17.61;64.54;102938.75;7371209;19;20029;-63
2022/07/08 04:55:57;;;;;;;0.00;0.00;;;;;;;17.57;64.55;102937.06;7370767;19;20723;-63
2022/07/08 04:58:22;;;;;;;0.00;0.00;;;;;;;17.54;64.51;102934.50;7368847;19;20021;-63
2022/07/08 05:00:48;;;;;;;0.00;0.00;;;;;;;17.51;64.74;102937.16;7372912;19;20010;-63
2022/07/08 05:03:13;;;;;;;0.00;0.00;;;;;;;17.47;64.52;102938.97;7372082;19;20019;-63
2022/07/08 05:05:39;;;;;;;0.00;0.00;;;;;;;17.44;64.45;102932.88;7373362;19;20007;-63
2022/07/08 05:08:05;;;;;;;0.00;0.00;;;;;;;17.42;64.44;102943.47;7372944;19;20047;-63
2022/07/08 05:10:30;;;;;;;0.00;0.00;;;;;;;17.35;64.44;102937.41;7369870;19;20018;-63
2022/07/08 05:12:57;;;;;;;0.00;0.00;;;;;;;17.38;64.72;102945.25;7373744;19;20014;-63
2022/07/08 05:15:23;;;;;;;0.00;0.00;;;;;;;17.26;64.52;102936.66;7363291;19;20734;-63
2022/07/08 05:17:49;;;;;;;0.00;0.00;;;;;;;17.34;64.89;102946.22;7370938;19;20014;-63
2022/07/08 05:20:14;;;;;;;0.10;0.10;;;;;;;17.32;64.70;102953.28;7374765;19;20014;-63
2022/07/08 05:22:40;;;;;;;0.00;0.00;;;;;;;17.31;64.88;102951.56;7362263;19;20006;-63
2022/07/08 05:25:07;;;;;;;0.00;0.00;;;;;;;17.28;64.99;102940.16;7368642;19;20010;-63
2022/07/08 05:27:33;;;;;;;0.00;0.00;;;;;;;17.29;65.00;102949.84;7358029;19;20792;-62
2022/07/08 05:29:59;;;;;;;0.00;0.00;;;;;;;17.27;64.90;102955.13;7354599;19;20049;-63
2022/07/08 05:32:25;;;;;;;0.00;0.00;;;;;;;17.25;65.14;102946.38;7355734;19;20022;-63
2022/07/08 05:34:50;;;;;;;0.05;0.05;;;;;;;17.26;65.32;102947.22;7358146;19;20030;-63
2022/07/08 05:37:16;;;;;;;0.00;0.00;;;;;;;17.26;65.87;102955.16;7354317;19;20058;-63
2022/07/08 05:39:42;;;;;;;0.00;0.00;;;;;;;17.24;65.63;102949.91;7351624;19;20019;-63
2022/07/08 05:42:08;;;;;;;0.05;0.05;;;;;;;17.24;65.37;102944.63;7354733;19;20740;-63
2022/07/08 05:44:37;;;;;;;0.00;0.00;;;;;;;17.24;65.88;102949.91;7350365;19;20081;-63
2022/07/08 05:47:09;;;;;;;0.00;0.00;;;;;;;17.24;65.50;102944.63;7359864;19;20015;-63
2022/07/08 05:49:36;;;;;;;0.00;0.00;;;;;;;17.21;65.82;102943.78;7339514;19;20066;-63
2022/07/08 05:52:02;;;;;;;0.00;0.00;;;;;;;17.22;65.74;102945.53;7355094;19;20010;-63
2022/07/08 05:54:27;;;;;;;0.00;0.00;;;;;;;17.23;65.49;102953.41;7351147;19;20081;-63
2022/07/08 05:56:53;;;;;;;0.00;0.00;;;;;;;17.24;65.67;102943.75;7339468;19;20624;-63
2022/07/08 05:59:19;;;;;;;0.00;0.00;;;;;;;17.27;65.56;102949.84;7351712;19;20007;-62
2022/07/08 06:01:44;;;;;;;0.00;0.00;;;;;;;17.25;65.46;102945.50;7340192;19;20006;-63
2022/07/08 06:04:09;;;;;;;0.00;0.00;;;;;;;17.31;65.45;102948.91;7343079;19;20010;-63
2022/07/08 06:06:35;;;;;;;0.00;0.00;;;;;;;17.35;65.63;102953.25;7349010;19;20048;-63
2022/07/08 06:09:00;;;;;;;0.10;0.10;;;;;;;17.36;65.00;102944.44;7349315;19;20010;-63
2022/07/08 06:55:05;;;;;;;0.00;0.00;;;;;;;17.98;63.55;102943.44;7388370;19;20042;-63
2022/07/08 06:57:31;;;;;;;0.00;0.00;;;;;;;18.02;64.36;102937.22;7332885;19;20090;-63
2022/07/08 06:59:56;;;;;;;0.00;0.00;;;;;;;18.07;64.06;102935.34;7340767;19;20010;-63
2022/07/08 07:02:22;;;;;;;0.00;0.00;;;;;;;18.11;64.22;102929.13;7349061;19;20023;-63
2022/07/08 07:04:47;;;;;;;0.00;0.00;;;;;;;17.89;63.54;102895.16;7349745;19;20093;-63
2022/07/08 07:07:13;;;;;;;0.00;0.00;;;;;;;18.18;63.17;102914.00;7355451;19;20474;-63
2022/07/08 07:09:39;;;;;;;0.00;0.00;;;;;;;18.25;63.12;102928.81;7349868;19;20016;-63
2022/07/08 07:12:09;;;;;;;0.00;0.00;;;;;;;18.32;62.84;102928.69;7344789;19;20018;-63
2022/07/08 07:14:35;;;;;;;0.10;0.10;;;;;;;18.33;62.82;102925.16;7349294;19;20038;-63
2022/07/08 07:17:02;;;;;;;0.00;0.00;;;;;;;18.27;63.50;102909.41;7356982;19;20023;-63
2022/07/08 07:19:27;;;;;;;0.03;0.03;;;;;;;18.33;63.23;102909.28;7352336;19;20010;-64
2022/07/08 07:21:54;;;;;;;0.03;0.03;;;;;;;18.47;63.38;102926.66;7357328;19;20672;-63
2022/07/08 07:24:20;;;;;;;0.05;0.05;;;;;;;18.54;63.50;102928.25;7355677;19;20363;-63
2022/07/08 07:26:46;;;;;;;0.00;0.00;;;;;;;18.62;63.11;102932.50;7357715;19;21957;-63
2022/07/08 07:29:11;;;;;;;0.00;0.00;;;;;;;18.74;63.06;102935.81;7352254;19;21010;-62
2022/07/08 07:31:37;;;;;;;0.00;0.00;;;;;;;18.84;62.65;102932.94;7310846;19;20014;-63
2022/07/08 07:34:03;;;;;;;0.00;0.00;;;;;;;18.96;62.68;102936.22;7332848;19;20772;-63
2022/07/08 07:36:30;;;;;;;0.00;0.00;;;;;;;18.99;61.95;102931.72;7331845;19;20045;-63
2022/07/08 07:38:55;;;;;;;0.05;0.05;;;;;;;19.13;62.27;102934.06;7357045;19;19999;-63
2022/07/08 07:41:21;;;;;;;0.00;0.00;;;;;;;19.21;62.11;102937.44;7355314;19;20546;-62
2022/07/08 07:43:47;;;;;;;0.00;0.00;;;;;;;19.30;61.24;102931.88;7353547;19;20047;-62
2022/07/08 07:46:12;;;;;;;0.00;0.00;;;;;;;19.38;61.51;102932.59;7352278;19;20002;-62
2022/07/08 07:48:37;;;;;;;0.00;0.00;;;;;;;19.46;60.59;102932.38;7359318;19;20025;-63
2022/07/08 07:51:04;;;;;;;0.00;0.00;;;;;;;19.54;60.90;102934.88;7359375;19;20078;-63
2022/07/08 08:11:04;;;;;;;0.10;0.10;;;;;;;19.79;59.76;102938.69;7366727;19;20580;-63
2022/07/08 08:13:30;;;;;;;0.03;0.03;;;;;;;19.80;60.09;102927.16;7348929;19;20015;-63
2022/07/08 08:15:55;;;;;;;0.00;0.00;;;;;;;19.87;60.62;102934.06;7349112;19;20019;-63
2022/07/08 08:18:21;;;;;;;0.00;0.00;;;;;;;19.94;60.36;102925.03;7356410;19;20006;-62
2022/07/08 08:20:47;;;;;;;0.00;0.00;;;;;;;20.01;60.01;102924.84;7346318;19;20497;-63
2022/07/08 08:23:13;;;;;;;0.00;0.00;;;;;;;20.10;60.28;102920.16;7357888;19;20082;-63
2022/07/08 08:25:38;;;;;;;0.00;0.00;;;;;;;20.16;60.02;102909.38;7358010;19;20026;-62
2022/07/08 08:28:04;;;;;;;0.00;0.00;;;;;;;20.28;59.78;102918.81;7348440;19;20484;-63
2022/07/08 08:30:30;;;;;;;0.00;0.00;;;;;;;20.37;59.45;102930.91;7359804;19;20051;-63
2022/07/08 08:32:56;;;;;;;0.00;0.00;;;;;;;20.45;58.93;102937.75;7353343;19;20011;-63
2022/07/08 08:35:22;;;;;;;0.00;0.00;;;;;;;20.53;58.69;102928.72;7356590;19;20066;-63
2022/07/08 08:37:47;;;;;;;0.10;0.10;;;;;;;20.61;58.56;102932.03;7353342;19;20002;-63
2022/07/08 08:40:13;;;;;;;0.00;0.00;;;;;;;20.68;58.02;102934.47;7360030;19;20022;-63
2022/07/08 08:42:41;;;;;;;0.00;0.00;;;;;;;20.76;57.83;102933.38;7352551;19;20006;-63
2022/07/08 08:45:08;;;;;;;0.05;0.05;;;;;;;20.83;58.15;102933.13;7355333;19;20031;-63
2022/07/08 08:47:34;;;;;;;0.00;0.00;;;;;;;20.89;57.89;102926.78;7350259;19;20031;-63
2022/07/08 08:50:53;;;;;;;0.00;0.00;;;;;;;20.94;57.26;102920.41;7348870;19;20014;-63
2022/07/08 08:52:52;;;;;;;0.00;0.00;;;;;;;21.08;57.02;102932.38;7357293;19;20758;-63
2022/07/08 08:55:33;;;;;;;0.00;0.00;;;;;;;21.16;57.35;102936.53;7354894;19;20030;-63
2022/07/08 08:57:59;;;;;;;0.00;0.00;;;;;;;21.15;56.94;102928.63;7362642;19;20034;-63
2022/07/08 09:00:26;;;;;;;0.00;0.00;;;;;;;21.22;57.13;102927.50;7364745;19;24074;-63
2022/07/08 09:02:53;;;;;;;0.10;0.10;;;;;;;21.28;56.21;102919.31;7360033;19;20010;-63
2022/07/08 09:05:19;;;;;;;0.00;0.00;;;;;;;21.34;55.92;102920.94;7366677;19;20430;-63
2022/07/08 09:07:45;;;;;;;0.00;0.00;;;;;;;21.41;56.70;102922.50;7367328;19;20014;-63
2022/07/08 09:10:11;;;;;;;0.00;0.00;;;;;;;21.52;56.06;102916.84;7364901;19;20019;-63
2022/07/08 09:12:37;;;;;;;0.00;0.00;;;;;;;21.64;55.92;102924.38;7364245;19;20035;-63
2022/07/08 09:15:04;;;;;;;0.10;0.10;;;;;;;21.73;55.92;102918.75;7366250;19;20022;-63
2022/07/08 09:17:29;;;;;;;0.10;0.10;;;;;;;21.86;55.88;102916.56;7366850;19;20014;-63
2022/07/08 09:19:55;;;;;;;0.10;0.10;;;;;;;21.94;56.48;102907.34;7363402;19;20022;-62
2022/07/08 09:22:22;;;;;;;0.00;0.00;;;;;;;22.09;56.21;102918.38;7360610;19;20010;-62
2022/07/08 09:24:48;;;;;;;0.10;0.10;;;;;;;22.21;55.56;102907.34;7365887;19;20030;-63
2022/07/08 09:27:14;;;;;;;0.10;0.10;;;;;;;22.34;55.58;102910.41;7363222;19;20030;-63
2022/07/08 09:29:55;;;;;;;0.00;0.00;;;;;;;22.49;55.22;102902.72;7365726;19;20002;-64
2022/07/08 09:32:21;;;;;;;0.10;0.10;;;;;;;22.50;54.86;102901.78;7362323;19;20022;-63
2022/07/08 09:34:46;;;;;;;0.00;0.00;;;;;;;22.61;54.06;102908.50;7366691;19;20039;-63
2022/07/08 09:37:16;;;;;;;0.10;0.10;;;;;;;22.66;54.16;102899.44;7364084;19;20010;-62
2022/07/08 09:39:43;;;;;;;0.00;0.00;;;;;;;22.73;53.92;102900.06;7369611;19;20035;-62
2022/07/08 09:42:10;;;;;;;0.00;0.00;;;;;;;22.85;53.36;102896.88;7367344;19;20034;-62
2022/07/08 09:44:36;;;;;;;0.00;0.00;;;;;;;23.01;53.65;102911.41;7364076;19;20074;-62
2022/07/08 09:47:13;;;;;;;0.00;0.00;;;;;;;23.24;53.69;102909.59;7364352;19;20069;-63
2022/07/08 09:49:45;;;;;;;0.00;0.00;;;;;;;23.37;53.12;102908.16;7363126;19;20002;-63
2022/07/08 09:52:18;;;;;;;0.00;0.00;;;;;;;23.39;52.49;102911.63;7364123;19;20010;-63
2022/07/08 09:54:44;;;;;;;0.00;0.00;;;;;;;23.48;51.85;102918.38;7363377;19;20549;-63
2022/07/08 09:57:11;;;;;;;0.00;0.00;;;;;;;23.56;51.67;102914.44;7366787;19;20026;-62
2022/07/08 09:59:37;;;;;;;0.10;0.10;;;;;;;23.62;51.42;102917.78;7361972;19;20010;-63
2022/07/08 10:02:04;;;;;;;0.00;0.00;;;;;;;23.71;51.37;102917.41;7364966;19;20029;-63
2022/07/08 10:04:30;;;;;;;0.00;0.00;;;;;;;23.74;51.20;102917.31;7344079;19;20351;-62
2022/07/08 10:06:57;;;;;;;0.10;0.10;;;;;;;23.80;50.66;102922.38;7364073;19;20006;-63
2022/07/08 10:09:24;;;;;;;0.00;0.00;;;;;;;23.83;51.36;102911.56;7366744;19;20347;-62
2022/07/08 10:11:50;;;;;;;;;;;;;;;24.02;52.53;102917.81;7368697;19;20043;-63
2022/07/08 10:14:16;;;;;;;0.00;0.00;;;;;;;24.04;50.52;102910.63;7364551;19;20305;-63
2022/07/08 10:16:49;;;;;;;0.00;0.00;;;;;;;24.25;50.84;102915.94;7363661;19;20027;-62
2022/07/08 10:19:21;;;;;;;0.03;0.03;;;;;;;24.42;50.18;102910.72;7363525;19;20039;-62
2022/07/08 10:21:51;;;;;;;0.10;0.10;;;;;;;24.51;49.86;102910.31;7361046;19;20038;-62
2022/07/08 10:24:27;;;;;;;0.00;0.00;;;;;;;24.65;49.49;102911.47;7366322;19;20035;-62
2022/07/08 10:26:58;;;;;;;0.00;0.00;;;;;;;24.81;49.38;102912.47;7370622;19;20039;-63
2022/07/08 10:29:31;;;;;;;0.10;0.10;;;;;;;25.04;49.89;102909.56;7370967;19;20354;-62
2022/07/08 10:31:58;;;;;;;0.10;0.10;;;;;;;25.27;48.40;102910.25;7361232;19;20010;-62
2022/07/08 10:34:34;;;;;;;0.10;0.10;;;;;;;25.62;49.05;102904.00;7364886;19;20031;-62
2022/07/08 10:37:01;;;;;;;0.00;0.00;;;;;;;25.86;47.18;102901.91;7365090;19;20010;-63
2022/07/08 10:39:38;;;;;;;0.10;0.10;;;;;;;26.18;47.51;102909.16;7359753;19;20014;-63
2022/07/08 10:42:10;;;;;;;0.10;0.10;;;;;;;26.50;47.81;102905.63;7362079;19;20016;-63
2022/07/08 10:44:45;;;;;;;0.10;0.10;;;;;;;26.77;46.90;102907.75;7359935;19;20394;-63
2022/07/08 10:47:23;;;;;;;0.10;0.10;;;;;;;27.04;46.78;102911.50;7359601;19;20007;-62
2022/07/08 10:49:50;;;;;;;0.00;0.00;;;;;;;27.12;45.47;102884.31;7362725;19;20010;-63
2022/07/08 10:52:16;;;;;;;0.00;0.00;;;;;;;27.54;43.22;102918.47;7361574;19;20156;-63
2022/07/08 10:54:42;;;;;;;0.03;0.03;;;;;;;27.72;43.22;102907.59;7362007;19;20006;-62
2022/07/08 10:57:16;;;;;;;0.00;0.00;;;;;;;27.90;42.65;102909.19;7360310;19;20118;-62
2022/07/08 11:00:23;;;;;;;0.10;0.10;;;;;;;28.06;44.38;102906.41;7361881;19;20119;-62
2022/07/08 11:02:50;;;;;;;0.00;0.00;;;;;;;28.08;41.89;102905.38;7256990;19;2004658;-62
2022/07/08 11:05:41;;;;;;;0.10;0.10;;;;;;;28.34;44.22;102922.56;7361545;19;20002;-62
2022/07/08 11:08:18;;;;;;;0.10;0.10;;;;;;;28.46;43.74;102920.06;7260619;19;2004564;-62
2022/07/08 11:10:44;;;;;;;0.03;0.03;;;;;;;28.49;42.20;102915.38;7358985;19;20098;-62
2022/07/08 11:13:10;;;;;;;0.10;0.10;;;;;;;28.72;42.11;102921.09;7360168;19;20689;-62
2022/07/08 11:15:37;;;;;;;0.10;0.10;;;;;;;29.00;40.38;102918.38;7361852;19;20034;-62
2022/07/08 11:18:03;;;;;;;0.00;0.00;;;;;;;29.28;40.08;102913.81;7357906;19;20038;-62
2022/07/08 11:20:30;;;;;;;0.10;0.10;;;;;;;29.51;40.55;102894.31;7357841;19;20070;-62
2022/07/08 11:22:56;;;;;;;0.08;0.08;;;;;;;29.80;39.81;102910.28;7358681;19;20038;-62
2022/07/08 11:25:22;;;;;;;0.00;0.00;;;;;;;30.08;39.87;102912.78;7360550;19;20046;-62
2022/07/08 11:27:48;;;;;;;0.00;0.00;;;;;;;30.37;38.33;102904.50;7359687;19;20014;-62
2022/07/08 11:30:16;;;;;;;0.03;0.03;;;;;;;30.70;39.60;102904.75;7360187;19;20006;-63
2022/07/08 11:32:48;;;;;;;0.10;0.10;;;;;;;30.98;37.83;102900.03;7357134;19;20010;-62
2022/07/08 11:35:13;;;;;;;0.03;0.03;;;;;;;31.36;36.29;102901.69;7359289;19;20013;-62
2022/07/08 11:37:44;;;;;;;0.00;0.00;;;;;;;31.68;37.64;102905.47;7359212;19;21081;-62
2022/07/08 11:40:10;;;;;;;0.00;0.00;;;;;;;31.74;34.92;102899.59;7356123;19;20600;-63
2022/07/08 11:42:37;;;;;;;0.00;0.00;;;;;;;31.76;35.62;102886.81;7355428;19;20056;-62
2022/07/08 11:45:07;;;;;;;0.00;0.00;;;;;;;31.96;37.32;102887.09;7357670;19;20021;-63
2022/07/08 11:47:33;;;;;;;0.00;0.00;;;;;;;31.97;36.73;102878.00;7353193;19;20062;-63
2022/07/08 11:49:58;;;;;;;0.07;0.07;;;;;;;32.30;36.31;102882.56;7359895;19;20101;-63
2022/07/08 11:52:27;;;;;;;0.00;0.00;;;;;;;32.64;35.52;102888.78;7354588;19;20033;-63
2022/07/08 11:54:53;;;;;;;0.00;0.00;;;;;;;32.85;35.34;102882.59;7353874;19;20098;-63
2022/07/08 11:57:22;;;;;;;0.00;0.00;;;;;;;33.12;34.73;102872.19;7356774;19;20018;-63
2022/07/08 11:59:49;;;;;;;0.00;0.00;;;;;;;33.53;35.46;102878.66;7360186;19;20769;-63
2022/07/08 12:02:19;;;;;;;0.05;0.05;;;;;;;33.88;34.09;102882.84;7362332;19;20015;-63
2022/07/08 12:04:48;;;;;;;0.00;0.00;;;;;;;34.19;32.20;102873.75;7366016;19;20359;-62
2022/07/08 12:07:28;;;;;;;0.00;0.00;;;;;;;34.70;34.46;102880.91;7357844;19;20720;-62
2022/07/08 12:09:56;;;;;;;0.10;0.10;;;;;;;34.89;33.24;102881.94;7357156;19;20069;-63
2022/07/08 12:12:23;;;;;;;0.00;0.00;;;;;;;35.03;31.27;102867.97;7360632;19;20030;-62
2022/07/08 12:14:49;;;;;;;0.00;0.00;;;;;;;35.25;30.80;102875.78;7359804;19;20046;-62
2022/07/08 12:17:25;;;;;;;0.00;0.00;;;;;;;35.54;32.11;102861.34;7356422;19;20010;-64
2022/07/08 12:19:53;;;;;;;0.00;0.00;;;;;;;35.76;30.82;102873.72;7356690;19;20014;-62
2022/07/08 12:22:45;;;;;;;0.10;0.10;;;;;;;36.20;33.09;102872.13;7353513;19;20011;-62
2022/07/08 12:25:16;;;;;;;0.00;0.00;;;;;;;36.32;30.70;102873.63;7352027;19;20014;-62
2022/07/08 12:27:42;;;;;;;0.00;0.00;;;;;;;36.45;28.28;102873.31;7364454;19;20021;-63